createdAt,value
2022-10-07T00:01:05.272Z,8.20
2022-10-07T00:03:32.679Z,8.20
2022-10-07T00:06:14.699Z,8.20
2022-10-07T00:08:44.123Z,8.20
2022-10-07T00:11:15.080Z,8.20
2022-10-07T00:13:43.579Z,8.20
2022-10-07T00:16:25.167Z,8.10
2022-10-07T00:18:56.407Z,8.10
2022-10-07T00:21:24.592Z,8.10
2022-10-07T00:23:51.691Z,8.10
2022-10-07T00:26:20.688Z,8.10
2022-10-07T00:28:47.927Z,8.10
2022-10-07T00:31:20.937Z,8.00
2022-10-07T00:33:48.087Z,8.00
2022-10-07T00:36:18.700Z,8.00
2022-10-07T00:38:49.533Z,8.00
2022-10-07T00:41:22.417Z,7.90
2022-10-07T00:43:49.189Z,7.90
2022-10-07T00:46:33.032Z,7.90
2022-10-07T00:49:02.891Z,7.90
2022-10-07T00:51:31.134Z,7.90
2022-10-07T00:56:26.738Z,7.80
2022-10-07T01:01:21.379Z,7.80
2022-10-07T01:03:49.107Z,7.80
2022-10-07T01:06:16.545Z,7.80
2022-10-07T01:08:45.912Z,7.80
2022-10-07T01:11:30.682Z,7.80
2022-10-07T01:14:03.281Z,7.70
2022-10-07T01:17:00.660Z,7.70
2022-10-07T01:19:51.681Z,7.70
2022-10-07T01:22:49.913Z,7.70
2022-10-07T01:25:50.446Z,7.70
2022-10-07T01:28:24.636Z,7.70
2022-10-07T01:30:58.158Z,7.70
2022-10-07T01:33:30.239Z,7.70
2022-10-07T01:36:09.457Z,7.60
2022-10-07T01:38:41.126Z,7.60
2022-10-07T01:41:18.319Z,7.60
2022-10-07T01:43:48.000Z,7.60
2022-10-07T01:46:21.143Z,7.60
2022-10-07T01:48:48.650Z,7.60
2022-10-07T01:51:24.019Z,7.60
2022-10-07T01:54:33.114Z,7.60
2022-10-07T01:57:14.671Z,7.50
2022-10-07T01:59:56.300Z,7.60
2022-10-07T02:02:53.121Z,7.50
2022-10-07T02:05:40.852Z,7.50
2022-10-07T02:08:18.934Z,7.50
2022-10-07T02:11:16.055Z,7.40
2022-10-07T02:13:50.882Z,7.40
2022-10-07T02:16:29.431Z,7.40
2022-10-07T02:18:57.598Z,7.40
2022-10-07T02:21:29.497Z,7.40
2022-10-07T02:23:57.983Z,7.40
2022-10-07T02:26:27.969Z,7.40
2022-10-07T02:28:58.116Z,7.40
2022-10-07T02:31:30.239Z,7.40
2022-10-07T02:33:58.971Z,7.40
2022-10-07T02:36:31.253Z,7.40
2022-10-07T02:39:00.121Z,7.30
2022-10-07T02:41:41.964Z,7.30
2022-10-07T02:44:47.858Z,7.30
2022-10-07T02:47:32.949Z,7.30
2022-10-07T02:50:03.443Z,7.30
2022-10-07T02:52:32.532Z,7.30
2022-10-07T02:55:06.696Z,7.20
2022-10-07T02:57:37.756Z,7.20
2022-10-07T03:00:10.781Z,7.20
2022-10-07T03:02:56.866Z,7.20
2022-10-07T03:05:25.901Z,7.20
2022-10-07T03:08:10.704Z,7.20
2022-10-07T03:10:38.488Z,7.20
2022-10-07T03:15:39.716Z,7.20
2022-10-07T03:20:56.890Z,7.20
2022-10-07T03:23:24.667Z,7.20
2022-10-07T03:25:53.471Z,7.20
2022-10-07T03:28:21.728Z,7.20
2022-10-07T03:30:49.244Z,7.20
2022-10-07T03:33:18.129Z,7.20
2022-10-07T03:38:12.479Z,7.10
2022-10-07T03:40:39.764Z,7.10
2022-10-07T03:43:07.503Z,7.10
2022-10-07T03:45:37.238Z,7.00
2022-10-07T03:48:04.472Z,7.00
2022-10-07T03:50:31.119Z,7.00
2022-10-07T03:52:57.797Z,7.00
2022-10-07T04:00:26.976Z,7.00
2022-10-07T04:05:21.980Z,6.90
2022-10-07T04:07:50.090Z,6.90
2022-10-07T04:10:18.930Z,6.90
2022-10-07T04:12:48.017Z,6.90
2022-10-07T04:15:15.251Z,6.90
2022-10-07T04:17:43.313Z,6.90
2022-10-07T04:20:11.187Z,6.90
2022-10-07T04:22:38.232Z,6.90
2022-10-07T04:25:25.448Z,6.80
2022-10-07T04:27:56.596Z,6.80
2022-10-07T04:30:26.593Z,6.90
2022-10-07T04:35:23.783Z,6.90
2022-10-07T04:37:53.691Z,6.80
2022-10-07T04:40:21.460Z,6.80
2022-10-07T04:43:07.792Z,6.80
2022-10-07T04:45:36.046Z,6.80
2022-10-07T04:48:05.970Z,6.80
2022-10-07T04:50:33.465Z,6.80
2022-10-07T04:53:00.344Z,6.80
2022-10-07T04:55:28.161Z,6.80
2022-10-07T05:02:50.492Z,6.80
2022-10-07T05:05:18.011Z,6.80
2022-10-07T05:07:50.089Z,6.80
2022-10-07T05:10:17.192Z,6.70
2022-10-07T05:12:44.002Z,6.70
2022-10-07T05:15:11.366Z,6.70
2022-10-07T05:17:40.328Z,6.70
2022-10-07T05:20:12.363Z,6.70
2022-10-07T05:22:39.609Z,6.60
2022-10-07T05:25:06.796Z,6.70
2022-10-07T05:27:33.531Z,6.60
2022-10-07T05:32:27.924Z,6.60
2022-10-07T05:34:55.393Z,6.70
2022-10-07T05:42:16.570Z,6.60
2022-10-07T05:44:43.270Z,6.60
2022-10-07T05:47:09.911Z,6.70
2022-10-07T05:52:04.379Z,6.70
2022-10-07T05:57:00.110Z,6.70
2022-10-07T05:59:26.775Z,6.70
2022-10-07T06:04:29.978Z,6.80
2022-10-07T06:06:56.610Z,6.80
2022-10-07T06:09:42.246Z,6.80
2022-10-07T06:12:28.793Z,6.90
2022-10-07T06:14:55.421Z,6.90
2022-10-07T06:19:49.227Z,6.90
2022-10-07T06:24:43.390Z,7.00
2022-10-07T06:29:37.087Z,7.10
2022-10-07T06:32:03.734Z,7.10
2022-10-07T06:36:57.465Z,7.20
2022-10-07T06:46:48.268Z,7.40
2022-10-07T06:51:42.127Z,7.50
2022-10-07T06:56:35.945Z,7.60
2022-10-07T06:59:03.220Z,7.60
2022-10-07T07:01:29.995Z,7.70
2022-10-07T07:03:57.069Z,7.70
2022-10-07T07:08:51.293Z,7.90
2022-10-07T07:11:37.813Z,8.00
2022-10-07T07:14:05.613Z,8.00
2022-10-07T07:16:33.117Z,8.10
2022-10-07T07:19:02.140Z,8.20
2022-10-07T07:21:30.087Z,8.30
2022-10-07T07:23:57.619Z,8.30
2022-10-07T07:28:56.897Z,8.50
2022-10-07T07:31:23.624Z,8.60
2022-10-07T07:33:52.626Z,8.70
2022-10-07T07:36:24.958Z,8.80
2022-10-07T07:38:52.269Z,8.90
2022-10-07T07:41:20.970Z,9.00
2022-10-07T07:43:50.457Z,9.10
2022-10-07T07:46:18.983Z,9.20
2022-10-07T07:51:15.805Z,9.40
2022-10-07T07:53:43.342Z,9.50
2022-10-07T07:56:11.578Z,9.60
2022-10-07T07:58:39.145Z,9.70
2022-10-07T08:01:13.278Z,9.80
2022-10-07T08:03:44.484Z,9.90
2022-10-07T08:06:12.558Z,10.00
2022-10-07T08:08:43.076Z,10.10
2022-10-07T08:11:15.743Z,10.20
2022-10-07T08:13:42.937Z,10.30
2022-10-07T08:16:13.152Z,10.30
2022-10-07T08:18:45.966Z,10.50
2022-10-07T08:21:14.061Z,10.50
2022-10-07T08:26:08.545Z,10.70
2022-10-07T08:28:36.482Z,10.70
2022-10-07T08:31:11.807Z,10.80
2022-10-07T08:33:40.700Z,10.90
2022-10-07T08:36:10.672Z,11.00
2022-10-07T08:38:39.793Z,11.10
2022-10-07T08:41:09.907Z,11.20
2022-10-07T08:43:45.159Z,11.30
2022-10-07T08:46:21.451Z,11.40
2022-10-07T08:48:54.006Z,11.50
2022-10-07T08:51:26.195Z,11.60
2022-10-07T08:53:56.204Z,11.70
2022-10-07T08:56:24.908Z,11.70
2022-10-07T09:01:30.949Z,11.80
2022-10-07T09:03:57.566Z,11.90
2022-10-07T09:06:30.313Z,12.00
2022-10-07T09:09:04.507Z,12.10
2022-10-07T09:11:35.333Z,12.20
2022-10-07T09:14:25.074Z,12.30
2022-10-07T09:16:53.952Z,12.40
2022-10-07T09:19:33.776Z,12.50
2022-10-07T09:22:13.129Z,12.60
2022-10-07T09:24:39.939Z,12.70
2022-10-07T09:27:16.471Z,12.70
2022-10-07T09:32:17.378Z,12.80
2022-10-07T09:34:44.619Z,13.00
2022-10-07T09:37:12.950Z,13.10
2022-10-07T09:39:40.787Z,13.20
2022-10-07T09:42:16.147Z,13.20
2022-10-07T09:44:54.214Z,13.30
2022-10-07T09:47:27.506Z,13.30
2022-10-07T09:49:57.013Z,13.50
2022-10-07T09:52:29.321Z,13.50
2022-10-07T09:55:17.139Z,13.60
2022-10-07T09:57:44.276Z,13.70
2022-10-07T10:00:13.826Z,13.80
2022-10-07T10:02:44.847Z,13.90
2022-10-07T10:05:30.390Z,14.00
2022-10-07T10:08:01.046Z,14.10
2022-10-07T10:10:36.603Z,14.10
2022-10-07T10:13:06.156Z,14.20
2022-10-07T10:15:35.866Z,14.30
2022-10-07T10:18:23.460Z,14.40
2022-10-07T10:20:50.109Z,14.50
2022-10-07T10:23:30.498Z,14.60
2022-10-07T10:26:32.723Z,14.70
2022-10-07T10:29:25.691Z,14.90
2022-10-07T10:32:01.308Z,14.90
2022-10-07T10:34:52.589Z,15.00
2022-10-07T10:37:21.477Z,15.10
2022-10-07T10:42:22.610Z,15.10
2022-10-07T10:45:28.747Z,15.20
2022-10-07T10:48:04.739Z,15.30
2022-10-07T10:50:51.361Z,15.50
2022-10-07T10:53:32.007Z,15.50
2022-10-07T10:56:14.785Z,15.60
2022-10-07T10:59:09.389Z,15.60
2022-10-07T11:01:40.099Z,15.70
2022-10-07T11:04:09.855Z,15.80
2022-10-07T11:06:40.204Z,15.90
2022-10-07T11:09:15.739Z,15.90
2022-10-07T11:11:44.119Z,15.90
2022-10-07T11:14:17.211Z,16.00
2022-10-07T11:16:55.334Z,16.00
2022-10-07T11:19:24.992Z,16.00
2022-10-07T11:21:54.664Z,16.00
2022-10-07T11:24:44.133Z,16.00
2022-10-07T11:27:24.946Z,16.10
2022-10-07T11:30:05.165Z,16.10
2022-10-07T11:32:46.852Z,16.20
2022-10-07T11:35:31.285Z,16.30
2022-10-07T11:38:00.709Z,16.40
2022-10-07T11:40:31.806Z,16.50
2022-10-07T11:43:06.520Z,16.50
2022-10-07T11:45:42.472Z,16.60
2022-10-07T11:48:14.442Z,16.70
2022-10-07T11:51:02.699Z,16.80
2022-10-07T11:53:34.075Z,16.90
2022-10-07T11:56:21.816Z,16.80
2022-10-07T11:59:06.604Z,16.90
2022-10-07T12:01:36.263Z,16.90
2022-10-07T12:04:16.953Z,17.00
2022-10-07T12:07:21.137Z,17.00
2022-10-07T12:10:07.363Z,17.00
2022-10-07T12:12:46.609Z,17.10
2022-10-07T12:15:33.310Z,17.10
2022-10-07T12:18:06.127Z,17.10
2022-10-07T12:20:50.852Z,17.00
2022-10-07T12:23:23.940Z,17.00
2022-10-07T12:25:58.335Z,17.10
2022-10-07T12:28:30.786Z,17.10
2022-10-07T12:31:02.489Z,17.10
2022-10-07T12:33:34.981Z,17.10
2022-10-07T12:36:29.592Z,17.20
2022-10-07T12:38:56.383Z,17.20
2022-10-07T12:41:25.065Z,17.20
2022-10-07T12:44:10.795Z,17.30
2022-10-07T12:46:37.414Z,17.40
2022-10-07T12:49:23.000Z,17.30
2022-10-07T12:51:53.715Z,17.30
2022-10-07T12:54:38.120Z,17.40
2022-10-07T12:57:12.606Z,17.50
2022-10-07T13:00:06.300Z,17.50
2022-10-07T13:03:11.380Z,17.50
2022-10-07T13:06:15.156Z,17.50
2022-10-07T13:11:29.983Z,17.50
2022-10-07T13:14:13.738Z,17.40
2022-10-07T13:16:52.268Z,17.40
2022-10-07T13:19:18.909Z,17.40
2022-10-07T13:22:15.213Z,17.40
2022-10-07T13:24:47.609Z,17.50
2022-10-07T13:27:27.735Z,17.50
2022-10-07T13:29:56.377Z,17.40
2022-10-07T13:37:33.987Z,17.50
2022-10-07T13:40:20.898Z,17.40
2022-10-07T13:43:00.242Z,17.40
2022-10-07T13:45:28.695Z,17.40
2022-10-07T13:47:57.668Z,17.40
2022-10-07T13:50:28.002Z,17.50
2022-10-07T13:52:56.052Z,17.50
2022-10-07T13:55:25.441Z,17.50
2022-10-07T13:57:57.212Z,17.50
2022-10-07T14:00:25.019Z,17.30
2022-10-07T14:02:52.557Z,17.30
2022-10-07T14:05:31.959Z,17.40
2022-10-07T14:08:00.696Z,17.50
2022-10-07T14:10:29.892Z,17.60
2022-10-07T14:13:03.339Z,17.60
2022-10-07T14:15:33.259Z,17.60
2022-10-07T14:18:08.460Z,17.50
2022-10-07T14:23:22.378Z,17.50
2022-10-07T14:26:04.269Z,17.50
2022-10-07T14:28:33.336Z,17.50
2022-10-07T14:31:27.892Z,17.50
2022-10-07T14:34:18.696Z,17.50
2022-10-07T14:37:19.616Z,17.50
2022-10-07T14:39:49.058Z,17.40
2022-10-07T14:42:25.850Z,17.40
2022-10-07T14:44:54.847Z,17.40
2022-10-07T14:47:30.943Z,17.40
2022-10-07T14:50:00.558Z,17.50
2022-10-07T14:52:31.474Z,17.40
2022-10-07T14:55:00.986Z,17.40
2022-10-07T14:57:27.852Z,17.50
2022-10-07T14:59:54.777Z,17.50
2022-10-07T15:02:22.314Z,17.40
2022-10-07T15:04:49.345Z,17.40
2022-10-07T15:07:16.795Z,17.40
2022-10-07T15:09:44.739Z,17.30
2022-10-07T15:12:13.728Z,17.30
2022-10-07T15:22:02.480Z,17.20
2022-10-07T15:26:59.532Z,17.00
2022-10-07T15:29:26.183Z,17.00
2022-10-07T15:31:52.867Z,16.90
2022-10-07T15:39:15.428Z,16.80
2022-10-07T15:41:43.710Z,16.80
2022-10-07T15:46:37.644Z,16.70
2022-10-07T15:51:32.275Z,16.70
2022-10-07T15:53:59.281Z,16.60
2022-10-07T15:56:26.020Z,16.50
2022-10-07T16:03:49.322Z,16.30
2022-10-07T16:06:24.077Z,16.20
2022-10-07T16:08:53.890Z,16.20
2022-10-07T16:13:48.982Z,16.00
2022-10-07T16:16:24.052Z,15.80
2022-10-07T16:18:53.285Z,15.80
2022-10-07T16:21:23.299Z,15.70
2022-10-07T16:23:54.689Z,15.50
2022-10-07T16:26:26.282Z,15.40
2022-10-07T16:29:12.631Z,15.30
2022-10-07T16:31:41.652Z,15.20
2022-10-07T16:34:10.531Z,15.10
2022-10-07T16:36:39.139Z,15.00
2022-10-07T16:41:37.616Z,14.80
2022-10-07T16:44:05.092Z,14.70
2022-10-07T16:46:32.440Z,14.60
2022-10-07T16:49:00.254Z,14.40
2022-10-07T16:51:29.894Z,14.30
2022-10-07T16:54:01.709Z,14.20
2022-10-07T16:56:30.146Z,14.00
2022-10-07T16:58:58.884Z,13.90
2022-10-07T17:01:27.426Z,13.80
2022-10-07T17:03:57.309Z,13.70
2022-10-07T17:06:25.526Z,13.50
2022-10-07T17:08:54.241Z,13.40
2022-10-07T17:11:31.768Z,13.40
2022-10-07T17:14:07.484Z,13.20
2022-10-07T17:16:39.985Z,13.20
2022-10-07T17:19:07.218Z,13.10
2022-10-07T17:21:36.056Z,13.00
2022-10-07T17:26:30.509Z,12.90
2022-10-07T17:29:09.819Z,12.80
2022-10-07T17:31:39.300Z,12.80
2022-10-07T17:34:07.479Z,12.80
2022-10-07T17:36:34.966Z,12.80
2022-10-07T17:39:02.288Z,12.90
2022-10-07T17:41:31.459Z,12.80
2022-10-07T17:44:00.297Z,12.70
2022-10-07T17:46:29.807Z,12.60
2022-10-07T17:48:59.329Z,12.60
2022-10-07T17:51:28.902Z,12.60
2022-10-07T17:53:57.282Z,12.50
2022-10-07T17:56:24.410Z,12.50
2022-10-07T18:01:27.076Z,12.40
2022-10-07T18:03:59.151Z,12.40
2022-10-07T18:06:28.066Z,12.30
2022-10-07T18:08:55.022Z,12.30
2022-10-07T18:14:07.408Z,12.20
2022-10-07T18:16:35.535Z,12.10
2022-10-07T18:19:02.594Z,12.10
2022-10-07T18:21:31.340Z,12.00
2022-10-07T18:23:58.816Z,12.00
2022-10-07T18:26:25.942Z,11.90
2022-10-07T18:31:20.149Z,11.80
2022-10-07T18:36:17.575Z,11.70
2022-10-07T18:38:45.522Z,11.80
2022-10-07T18:41:14.702Z,11.70
2022-10-07T18:43:44.103Z,11.60
2022-10-07T18:46:13.952Z,11.60
2022-10-07T18:48:42.143Z,11.40
2022-10-07T18:51:10.833Z,11.50
2022-10-07T18:53:39.562Z,11.40
2022-10-07T18:56:12.135Z,11.40
2022-10-07T18:58:41.420Z,11.40
2022-10-07T19:01:16.612Z,11.30
2022-10-07T19:03:44.000Z,11.30
2022-10-07T19:06:16.476Z,11.20
2022-10-07T19:08:43.413Z,11.20
2022-10-07T19:11:15.416Z,11.10
2022-10-07T19:16:18.929Z,11.10
2022-10-07T19:18:47.534Z,11.10
2022-10-07T19:23:42.024Z,11.10
2022-10-07T19:28:38.348Z,11.10
2022-10-07T19:31:23.391Z,11.10
2022-10-07T19:33:52.688Z,11.10
2022-10-07T19:36:21.072Z,11.10
2022-10-07T19:38:52.361Z,11.10
2022-10-07T19:41:23.788Z,11.10
2022-10-07T19:43:51.279Z,11.10
2022-10-07T19:46:19.964Z,11.00
2022-10-07T19:48:47.078Z,11.00
2022-10-07T19:51:17.596Z,11.00
2022-10-07T19:53:47.053Z,11.00
2022-10-07T19:58:48.779Z,10.90
2022-10-07T20:01:18.457Z,10.90
2022-10-07T20:03:45.378Z,10.90
2022-10-07T20:08:41.899Z,10.80
2022-10-07T20:11:09.967Z,10.80
2022-10-07T20:13:38.043Z,10.80
2022-10-07T20:16:15.395Z,10.80
2022-10-07T20:18:42.144Z,10.80
2022-10-07T20:21:12.370Z,10.80
2022-10-07T20:23:41.343Z,10.80
2022-10-07T20:26:14.251Z,10.80
2022-10-07T20:28:40.948Z,10.80
2022-10-07T20:31:12.561Z,10.80
2022-10-07T20:36:08.366Z,10.80
2022-10-07T20:38:54.628Z,10.90
2022-10-07T20:41:41.111Z,10.80
2022-10-07T20:46:37.702Z,10.80
2022-10-07T20:49:21.820Z,10.90
2022-10-07T20:51:53.201Z,10.90
2022-10-07T20:54:22.704Z,10.80
2022-10-07T20:56:51.764Z,10.80
2022-10-07T21:04:15.017Z,10.70
2022-10-07T21:06:42.694Z,10.70
2022-10-07T21:09:09.927Z,10.60
2022-10-07T21:11:37.319Z,10.60
2022-10-07T21:16:32.414Z,10.60
2022-10-07T21:21:26.264Z,10.50
2022-10-07T21:23:53.015Z,10.50
2022-10-07T21:26:20.244Z,10.50
2022-10-07T21:28:48.431Z,10.50
2022-10-07T21:31:19.016Z,10.60
2022-10-07T21:33:48.810Z,10.60
2022-10-07T21:36:22.322Z,10.60
2022-10-07T21:38:54.618Z,10.60
2022-10-07T21:41:27.158Z,10.60
2022-10-07T21:43:55.641Z,10.60
2022-10-07T21:46:24.526Z,10.70
2022-10-07T21:48:52.009Z,10.70
2022-10-07T21:53:50.855Z,10.70
2022-10-07T21:56:18.398Z,10.60
2022-10-07T21:58:46.898Z,10.60
2022-10-07T22:01:16.025Z,10.60
2022-10-07T22:03:44.096Z,10.60
2022-10-07T22:06:13.497Z,10.60
2022-10-07T22:08:41.447Z,10.60
2022-10-07T22:11:13.566Z,10.60
2022-10-07T22:13:42.465Z,10.60
2022-10-07T22:16:14.602Z,10.50
2022-10-07T22:18:47.063Z,10.50
2022-10-07T22:21:26.273Z,10.40
2022-10-07T22:23:55.073Z,10.40
2022-10-07T22:26:27.798Z,10.30
2022-10-07T22:28:54.847Z,10.30
2022-10-07T22:31:22.193Z,10.30
2022-10-07T22:33:54.623Z,10.20
2022-10-07T22:36:22.134Z,10.10
2022-10-07T22:38:49.456Z,10.10
2022-10-07T22:41:18.944Z,10.10
2022-10-07T22:43:47.648Z,10.00
2022-10-07T22:46:17.124Z,10.00
2022-10-07T22:48:44.318Z,10.00
2022-10-07T22:51:14.371Z,9.90
2022-10-07T22:53:44.143Z,9.90
2022-10-07T22:56:13.393Z,9.80
2022-10-07T22:58:42.352Z,9.80
2022-10-07T23:01:13.999Z,9.80
2022-10-07T23:03:44.158Z,9.80
2022-10-07T23:06:17.275Z,9.80
2022-10-07T23:08:44.713Z,9.70
2022-10-07T23:11:23.285Z,9.70
2022-10-07T23:13:51.264Z,9.70
2022-10-07T23:16:23.687Z,9.60
2022-10-07T23:18:52.729Z,9.60
2022-10-07T23:21:24.778Z,9.60
2022-10-07T23:23:53.850Z,9.60
2022-10-07T23:26:29.201Z,9.60
2022-10-07T23:28:58.810Z,9.50
2022-10-07T23:31:27.622Z,9.50
2022-10-07T23:33:55.897Z,9.50
2022-10-07T23:36:23.555Z,9.40
2022-10-07T23:38:51.908Z,9.40
2022-10-07T23:41:21.212Z,9.40
2022-10-07T23:43:49.669Z,9.30
2022-10-07T23:46:17.582Z,9.30
2022-10-07T23:48:44.960Z,9.30
2022-10-07T23:51:14.316Z,9.30
2022-10-07T23:53:41.223Z,9.20
2022-10-07T23:56:08.655Z,9.20
2022-10-07T23:58:35.817Z,9.20
